• Join FlightAware (Why Join?)
  • Login
  • US Flag 
02:42PM EDT


 

Airport Tracker/Info


-or-


 

Live Flight TrackerFlight Track Log ✈ SKW5500 ✈ 29-Apr-2013 ✈ KDEN - KASE

Flight Track Log - Related Links

Times and Time Zones

All times are in EDT time to prevent confusion due to time zone crossing. See the SKW5500 flight status page for this flight to view local times or setup timezone preferences in your user account.

Time Position Orientation Groundspeed Altitude Reporting Facility
EDT Latitude Longitude Course Direction KTS MPH feet Rate Location/Type
05:28PM 39.7306 -105.1380 250° West  Level Estimated
05:29PM 39.6975 -105.2540 250° West  Level Estimated
05:30PM 39.6644 -105.3698 250° West  Level Estimated
05:31PM 39.6311 -105.4855 250° West  Level Estimated
05:32PM 39.5977 -105.6011 249° West  Level Estimated
05:33PM 39.5642 -105.7166 249° West  Level Estimated
05:34PM 39.5305 -105.8320 249° West  Level Estimated
05:35PM 39.4968 -105.9473 249° West  Level Estimated
05:36PM 39.4629 -106.0624 249° West  Level Estimated
05:37PM 39.4289 -106.1775 249° West  Level Estimated
05:38PM 39.3949 -106.2924 249° West  Level Estimated
05:39PM 39.3606 -106.4072 249° West  Level Estimated
05:40PM 39.3263 -106.5220 249° West  Level Estimated
05:41PM 39.2919 -106.6366 249° West  Level Estimated
05:42PM 39.2574 -106.7510 249° West  Level Estimated
05:43PM 39.2227 -106.8654 249° West  Level Estimated
05:44PM 39.2219 -106.8682 249° West  Level Estimated
05:45PM 39.2219 -106.8682 239° Southwest  Level Estimated
05:46PM 39.2219 -106.8682 239° Southwest  Level Estimated
05:47PM 39.2219 -106.8682 239° Southwest  Level Estimated
05:48PM 39.2219 -106.8682 239° Southwest  Level Estimated
05:49PM 39.2219 -106.8682 239° Southwest  Level Estimated
05:50PM 39.2219 -106.8682 239° Southwest  Level Estimated